sensor_id;sensor_type;location;lat;lon;timestamp;temperature;humidity
68385;DHT22;55336;43.062;25.626;2022-11-20T00:01:05;18.40;99.90
68385;DHT22;55336;43.062;25.626;2022-11-20T00:03:31;18.50;99.90
68385;DHT22;55336;43.062;25.626;2022-11-20T00:06:01;18.40;99.90
68385;DHT22;55336;43.062;25.626;2022-11-20T00:08:27;18.40;99.90
68385;DHT22;55336;43.062;25.626;2022-11-20T00:10:54;18.40;99.90
68385;DHT22;55336;43.062;25.626;2022-11-20T00:13:19;18.50;99.90
68385;DHT22;55336;43.062;25.626;2022-11-20T00:15:45;18.60;99.90
68385;DHT22;55336;43.062;25.626;2022-11-20T00:18:11;18.60;99.90
68385;DHT22;55336;43.062;25.626;2022-11-20T00:20:37;18.50;99.90
68385;DHT22;55336;43.062;25.626;2022-11-20T00:23:03;18.50;99.90
68385;DHT22;55336;43.062;25.626;2022-11-20T00:25:29;18.50;99.90
68385;DHT22;55336;43.062;25.626;2022-11-20T00:27:57;18.60;99.90
68385;DHT22;55336;43.062;25.626;2022-11-20T00:30:23;18.60;99.90
68385;DHT22;55336;43.062;25.626;2022-11-20T00:32:50;18.80;99.90
68385;DHT22;55336;43.062;25.626;2022-11-20T00:35:16;19.00;99.90
68385;DHT22;55336;43.062;25.626;2022-11-20T00:37:42;19.00;99.90
68385;DHT22;55336;43.062;25.626;2022-11-20T00:40:09;19.10;99.90
68385;DHT22;55336;43.062;25.626;2022-11-20T00:42:35;19.20;99.90
68385;DHT22;55336;43.062;25.626;2022-11-20T00:45:01;19.10;99.90
68385;DHT22;55336;43.062;25.626;2022-11-20T00:47:26;19.20;99.90
68385;DHT22;55336;43.062;25.626;2022-11-20T00:49:54;19.20;99.90
68385;DHT22;55336;43.062;25.626;2022-11-20T00:52:19;19.20;99.90
68385;DHT22;55336;43.062;25.626;2022-11-20T00:54:45;19.20;99.90
68385;DHT22;55336;43.062;25.626;2022-11-20T00:57:13;19.30;99.90
68385;DHT22;55336;43.062;25.626;2022-11-20T00:59:39;19.30;99.90
68385;DHT22;55336;43.062;25.626;2022-11-20T01:02:06;19.30;99.90
68385;DHT22;55336;43.062;25.626;2022-11-20T01:04:31;19.30;99.90
68385;DHT22;55336;43.062;25.626;2022-11-20T01:06:57;19.30;99.90
68385;DHT22;55336;43.062;25.626;2022-11-20T01:09:23;19.30;99.90
68385;DHT22;55336;43.062;25.626;2022-11-20T01:11:49;19.30;99.90
68385;DHT22;55336;43.062;25.626;2022-11-20T01:14:16;19.30;99.90
68385;DHT22;55336;43.062;25.626;2022-11-20T01:16:43;19.40;99.90
68385;DHT22;55336;43.062;25.626;2022-11-20T01:19:12;19.40;99.90
68385;DHT22;55336;43.062;25.626;2022-11-20T01:21:41;19.60;99.90
68385;DHT22;55336;43.062;25.626;2022-11-20T01:24:10;19.60;99.90
68385;DHT22;55336;43.062;25.626;2022-11-20T01:26:38;19.60;99.90
68385;DHT22;55336;43.062;25.626;2022-11-20T01:29:05;19.70;99.90
68385;DHT22;55336;43.062;25.626;2022-11-20T01:31:36;19.70;99.90
68385;DHT22;55336;43.062;25.626;2022-11-20T01:34:05;19.60;99.90
68385;DHT22;55336;43.062;25.626;2022-11-20T01:36:32;19.60;99.90
68385;DHT22;55336;43.062;25.626;2022-11-20T01:39:00;19.60;99.90
68385;DHT22;55336;43.062;25.626;2022-11-20T01:41:29;19.60;99.90
68385;DHT22;55336;43.062;25.626;2022-11-20T01:44:16;19.60;99.90
68385;DHT22;55336;43.062;25.626;2022-11-20T01:46:56;19.70;99.90
68385;DHT22;55336;43.062;25.626;2022-11-20T01:49:28;19.70;99.90
68385;DHT22;55336;43.062;25.626;2022-11-20T01:52:05;19.70;99.90
68385;DHT22;55336;43.062;25.626;2022-11-20T01:54:48;19.70;99.90
68385;DHT22;55336;43.062;25.626;2022-11-20T01:57:15;19.60;99.90
68385;DHT22;55336;43.062;25.626;2022-11-20T01:59:51;19.60;99.90
68385;DHT22;55336;43.062;25.626;2022-11-20T02:02:19;19.60;99.90
68385;DHT22;55336;43.062;25.626;2022-11-20T02:04:47;19.60;99.90
68385;DHT22;55336;43.062;25.626;2022-11-20T02:07:13;19.60;99.90
68385;DHT22;55336;43.062;25.626;2022-11-20T02:09:39;19.50;99.90
68385;DHT22;55336;43.062;25.626;2022-11-20T02:12:05;19.50;99.90
68385;DHT22;55336;43.062;25.626;2022-11-20T02:14:51;19.40;99.90
68385;DHT22;55336;43.062;25.626;2022-11-20T02:17:18;19.40;99.90
68385;DHT22;55336;43.062;25.626;2022-11-20T02:19:44;19.40;99.90
68385;DHT22;55336;43.062;25.626;2022-11-20T02:22:14;19.30;99.90
68385;DHT22;55336;43.062;25.626;2022-11-20T02:24:44;19.30;99.90
68385;DHT22;55336;43.062;25.626;2022-11-20T02:27:12;19.40;99.90
68385;DHT22;55336;43.062;25.626;2022-11-20T02:30:19;19.40;99.90
68385;DHT22;55336;43.062;25.626;2022-11-20T02:32:38;19.50;99.90
68385;DHT22;55336;43.062;25.626;2022-11-20T02:35:35;19.50;99.90
68385;DHT22;55336;43.062;25.626;2022-11-20T02:37:58;19.40;99.90
68385;DHT22;55336;43.062;25.626;2022-11-20T02:40:25;18.90;99.90
68385;DHT22;55336;43.062;25.626;2022-11-20T02:42:57;19.40;99.90
68385;DHT22;55336;43.062;25.626;2022-11-20T02:45:24;19.40;99.90
68385;DHT22;55336;43.062;25.626;2022-11-20T02:47:50;19.30;99.90
68385;DHT22;55336;43.062;25.626;2022-11-20T02:50:16;19.30;99.90
68385;DHT22;55336;43.062;25.626;2022-11-20T02:52:42;19.40;99.90
68385;DHT22;55336;43.062;25.626;2022-11-20T02:55:08;19.40;99.90
68385;DHT22;55336;43.062;25.626;2022-11-20T02:57:34;19.40;99.90
68385;DHT22;55336;43.062;25.626;2022-11-20T03:00:00;19.50;99.90
68385;DHT22;55336;43.062;25.626;2022-11-20T03:02:32;19.60;99.90
68385;DHT22;55336;43.062;25.626;2022-11-20T03:04:58;19.60;99.90
68385;DHT22;55336;43.062;25.626;2022-11-20T03:07:24;19.50;99.90
68385;DHT22;55336;43.062;25.626;2022-11-20T03:09:50;19.50;99.90
68385;DHT22;55336;43.062;25.626;2022-11-20T03:12:16;19.60;99.90
68385;DHT22;55336;43.062;25.626;2022-11-20T03:14:42;19.50;99.90
68385;DHT22;55336;43.062;25.626;2022-11-20T03:17:08;19.60;99.90
68385;DHT22;55336;43.062;25.626;2022-11-20T03:19:35;19.50;99.90
68385;DHT22;55336;43.062;25.626;2022-11-20T03:22:01;19.50;99.90
68385;DHT22;55336;43.062;25.626;2022-11-20T03:24:26;19.50;99.90
68385;DHT22;55336;43.062;25.626;2022-11-20T03:26:52;19.60;99.90
68385;DHT22;55336;43.062;25.626;2022-11-20T03:29:18;19.50;99.90
68385;DHT22;55336;43.062;25.626;2022-11-20T03:31:44;19.50;99.90
68385;DHT22;55336;43.062;25.626;2022-11-20T03:34:10;19.50;99.90
68385;DHT22;55336;43.062;25.626;2022-11-20T03:36:41;19.50;99.90
68385;DHT22;55336;43.062;25.626;2022-11-20T03:39:08;19.50;99.90
68385;DHT22;55336;43.062;25.626;2022-11-20T03:41:41;19.50;99.90
68385;DHT22;55336;43.062;25.626;2022-11-20T03:44:09;19.50;99.90
68385;DHT22;55336;43.062;25.626;2022-11-20T03:46:35;19.50;99.90
68385;DHT22;55336;43.062;25.626;2022-11-20T03:49:01;19.40;99.90
68385;DHT22;55336;43.062;25.626;2022-11-20T03:51:30;19.50;99.90
68385;DHT22;55336;43.062;25.626;2022-11-20T03:54:02;19.50;99.90
68385;DHT22;55336;43.062;25.626;2022-11-20T03:56:30;19.50;99.90
68385;DHT22;55336;43.062;25.626;2022-11-20T03:58:57;19.50;99.90
68385;DHT22;55336;43.062;25.626;2022-11-20T04:01:26;19.40;99.90
68385;DHT22;55336;43.062;25.626;2022-11-20T04:03:53;19.40;99.90
68385;DHT22;55336;43.062;25.626;2022-11-20T04:06:22;19.40;99.90
68385;DHT22;55336;43.062;25.626;2022-11-20T04:08:48;19.40;99.90
68385;DHT22;55336;43.062;25.626;2022-11-20T04:11:21;19.30;99.90
68385;DHT22;55336;43.062;25.626;2022-11-20T04:13:52;19.30;99.90
68385;DHT22;55336;43.062;25.626;2022-11-20T04:16:19;19.30;99.90
68385;DHT22;55336;43.062;25.626;2022-11-20T04:18:45;19.40;99.90
68385;DHT22;55336;43.062;25.626;2022-11-20T04:21:12;19.20;99.90
68385;DHT22;55336;43.062;25.626;2022-11-20T04:23:38;19.20;99.90
68385;DHT22;55336;43.062;25.626;2022-11-20T04:26:11;19.20;99.90
68385;DHT22;55336;43.062;25.626;2022-11-20T04:28:38;19.30;99.90
68385;DHT22;55336;43.062;25.626;2022-11-20T04:31:07;19.30;99.90
68385;DHT22;55336;43.062;25.626;2022-11-20T04:33:34;19.30;99.90
68385;DHT22;55336;43.062;25.626;2022-11-20T04:36:04;19.40;99.90
68385;DHT22;55336;43.062;25.626;2022-11-20T04:38:30;19.30;99.90
68385;DHT22;55336;43.062;25.626;2022-11-20T04:40:58;19.40;99.90
68385;DHT22;55336;43.062;25.626;2022-11-20T04:43:24;19.20;99.90
68385;DHT22;55336;43.062;25.626;2022-11-20T04:45:54;19.10;99.90
68385;DHT22;55336;43.062;25.626;2022-11-20T04:48:20;19.00;99.90
68385;DHT22;55336;43.062;25.626;2022-11-20T04:50:47;19.00;99.90
68385;DHT22;55336;43.062;25.626;2022-11-20T04:53:12;19.00;99.90
68385;DHT22;55336;43.062;25.626;2022-11-20T04:55:38;18.90;99.90
68385;DHT22;55336;43.062;25.626;2022-11-20T04:58:04;18.80;99.90
68385;DHT22;55336;43.062;25.626;2022-11-20T05:00:30;18.80;99.90
68385;DHT22;55336;43.062;25.626;2022-11-20T05:02:56;18.70;99.90
68385;DHT22;55336;43.062;25.626;2022-11-20T05:05:22;18.60;99.90
68385;DHT22;55336;43.062;25.626;2022-11-20T05:07:48;18.80;99.90
68385;DHT22;55336;43.062;25.626;2022-11-20T05:10:14;18.80;99.90
68385;DHT22;55336;43.062;25.626;2022-11-20T05:12:40;18.90;99.90
68385;DHT22;55336;43.062;25.626;2022-11-20T05:15:06;18.90;99.90
68385;DHT22;55336;43.062;25.626;2022-11-20T05:17:32;18.90;99.90
68385;DHT22;55336;43.062;25.626;2022-11-20T05:19:58;19.00;99.90
68385;DHT22;55336;43.062;25.626;2022-11-20T05:22:24;19.00;99.90
68385;DHT22;55336;43.062;25.626;2022-11-20T05:24:50;19.00;99.90
68385;DHT22;55336;43.062;25.626;2022-11-20T05:27:16;19.00;99.90
68385;DHT22;55336;43.062;25.626;2022-11-20T05:29:44;19.00;99.90
68385;DHT22;55336;43.062;25.626;2022-11-20T05:32:10;19.00;99.90
68385;DHT22;55336;43.062;25.626;2022-11-20T05:34:36;19.10;99.90
68385;DHT22;55336;43.062;25.626;2022-11-20T05:37:02;19.20;99.90
68385;DHT22;55336;43.062;25.626;2022-11-20T05:39:28;19.30;99.90
68385;DHT22;55336;43.062;25.626;2022-11-20T05:41:56;19.30;99.90
68385;DHT22;55336;43.062;25.626;2022-11-20T05:44:41;19.40;99.90
68385;DHT22;55336;43.062;25.626;2022-11-20T05:47:07;19.50;99.90
68385;DHT22;55336;43.062;25.626;2022-11-20T05:49:33;19.50;99.90
68385;DHT22;55336;43.062;25.626;2022-11-20T05:51:59;19.50;99.90
68385;DHT22;55336;43.062;25.626;2022-11-20T05:54:25;19.40;99.90
68385;DHT22;55336;43.062;25.626;2022-11-20T05:56:50;19.40;99.90
68385;DHT22;55336;43.062;25.626;2022-11-20T05:59:19;19.50;99.90
68385;DHT22;55336;43.062;25.626;2022-11-20T06:01:45;19.60;99.90
68385;DHT22;55336;43.062;25.626;2022-11-20T06:04:11;19.60;99.90
68385;DHT22;55336;43.062;25.626;2022-11-20T06:06:36;19.60;99.90
68385;DHT22;55336;43.062;25.626;2022-11-20T06:09:04;19.60;99.90
68385;DHT22;55336;43.062;25.626;2022-11-20T06:11:30;19.60;99.90
68385;DHT22;55336;43.062;25.626;2022-11-20T06:13:56;19.50;99.90
68385;DHT22;55336;43.062;25.626;2022-11-20T06:16:22;19.40;99.90
68385;DHT22;55336;43.062;25.626;2022-11-20T06:18:48;19.30;99.90
68385;DHT22;55336;43.062;25.626;2022-11-20T06:21:15;19.20;99.90
68385;DHT22;55336;43.062;25.626;2022-11-20T06:23:41;19.10;99.90
68385;DHT22;55336;43.062;25.626;2022-11-20T06:26:12;19.20;99.90
68385;DHT22;55336;43.062;25.626;2022-11-20T06:28:38;19.10;99.90
68385;DHT22;55336;43.062;25.626;2022-11-20T06:31:05;19.10;99.90
68385;DHT22;55336;43.062;25.626;2022-11-20T06:33:31;18.90;99.90
68385;DHT22;55336;43.062;25.626;2022-11-20T06:35:57;19.20;99.90
68385;DHT22;55336;43.062;25.626;2022-11-20T06:38:24;19.10;99.90
68385;DHT22;55336;43.062;25.626;2022-11-20T06:40:50;17.70;99.90
68385;DHT22;55336;43.062;25.626;2022-11-20T06:43:16;16.90;99.90
68385;DHT22;55336;43.062;25.626;2022-11-20T06:45:42;16.10;99.90
68385;DHT22;55336;43.062;25.626;2022-11-20T06:48:08;15.30;99.90
68385;DHT22;55336;43.062;25.626;2022-11-20T06:50:37;14.80;99.90
68385;DHT22;55336;43.062;25.626;2022-11-20T06:53:04;14.40;99.90
68385;DHT22;55336;43.062;25.626;2022-11-20T06:55:31;13.90;99.90
68385;DHT22;55336;43.062;25.626;2022-11-20T06:57:57;13.40;99.90
68385;DHT22;55336;43.062;25.626;2022-11-20T07:00:23;14.00;99.90
68385;DHT22;55336;43.062;25.626;2022-11-20T07:02:49;13.80;99.90
68385;DHT22;55336;43.062;25.626;2022-11-20T07:05:15;13.60;99.90
68385;DHT22;55336;43.062;25.626;2022-11-20T07:07:41;13.10;99.90
68385;DHT22;55336;43.062;25.626;2022-11-20T07:10:08;13.00;99.90
68385;DHT22;55336;43.062;25.626;2022-11-20T07:12:34;12.90;99.90
68385;DHT22;55336;43.062;25.626;2022-11-20T07:15:00;12.90;99.90
68385;DHT22;55336;43.062;25.626;2022-11-20T07:17:26;12.70;99.90
68385;DHT22;55336;43.062;25.626;2022-11-20T07:19:52;12.20;99.90
68385;DHT22;55336;43.062;25.626;2022-11-20T07:22:18;12.30;99.90
68385;DHT22;55336;43.062;25.626;2022-11-20T07:24:47;12.40;99.90
68385;DHT22;55336;43.062;25.626;2022-11-20T07:27:12;12.40;99.90
68385;DHT22;55336;43.062;25.626;2022-11-20T07:29:38;12.50;99.90
68385;DHT22;55336;43.062;25.626;2022-11-20T07:32:05;12.50;99.90
68385;DHT22;55336;43.062;25.626;2022-11-20T07:34:30;12.40;99.90
68385;DHT22;55336;43.062;25.626;2022-11-20T07:36:56;12.00;99.90
68385;DHT22;55336;43.062;25.626;2022-11-20T07:39:22;12.00;99.90
68385;DHT22;55336;43.062;25.626;2022-11-20T07:41:48;11.80;99.90
68385;DHT22;55336;43.062;25.626;2022-11-20T07:44:14;11.80;99.90
68385;DHT22;55336;43.062;25.626;2022-11-20T07:46:40;11.80;99.90
68385;DHT22;55336;43.062;25.626;2022-11-20T07:49:05;11.70;99.90
68385;DHT22;55336;43.062;25.626;2022-11-20T07:51:32;11.50;99.90
68385;DHT22;55336;43.062;25.626;2022-11-20T07:53:58;11.70;99.90
68385;DHT22;55336;43.062;25.626;2022-11-20T07:56:24;11.70;99.90
68385;DHT22;55336;43.062;25.626;2022-11-20T07:58:52;11.70;99.90
68385;DHT22;55336;43.062;25.626;2022-11-20T08:01:18;11.80;99.90
68385;DHT22;55336;43.062;25.626;2022-11-20T08:03:43;11.80;99.90
68385;DHT22;55336;43.062;25.626;2022-11-20T08:06:09;11.80;99.90
68385;DHT22;55336;43.062;25.626;2022-11-20T08:08:35;11.70;99.90
68385;DHT22;55336;43.062;25.626;2022-11-20T08:11:01;11.80;99.90
68385;DHT22;55336;43.062;25.626;2022-11-20T08:13:47;11.80;99.90
68385;DHT22;55336;43.062;25.626;2022-11-20T08:16:31;11.70;99.90
68385;DHT22;55336;43.062;25.626;2022-11-20T08:18:57;11.60;99.90
68385;DHT22;55336;43.062;25.626;2022-11-20T08:21:23;11.20;99.90
68385;DHT22;55336;43.062;25.626;2022-11-20T08:23:49;11.50;99.90
68385;DHT22;55336;43.062;25.626;2022-11-20T08:26:15;11.50;99.90
68385;DHT22;55336;43.062;25.626;2022-11-20T08:28:41;11.60;99.90
68385;DHT22;55336;43.062;25.626;2022-11-20T08:31:06;11.50;99.90
68385;DHT22;55336;43.062;25.626;2022-11-20T08:33:32;11.40;99.90
68385;DHT22;55336;43.062;25.626;2022-11-20T08:36:03;11.40;99.90
68385;DHT22;55336;43.062;25.626;2022-11-20T08:38:31;11.50;99.90
68385;DHT22;55336;43.062;25.626;2022-11-20T08:41:01;11.50;99.90
68385;DHT22;55336;43.062;25.626;2022-11-20T08:43:47;11.50;99.90
68385;DHT22;55336;43.062;25.626;2022-11-20T08:46:13;11.40;99.90
68385;DHT22;55336;43.062;25.626;2022-11-20T08:48:38;11.50;99.90
68385;DHT22;55336;43.062;25.626;2022-11-20T08:51:04;11.40;99.90
68385;DHT22;55336;43.062;25.626;2022-11-20T08:53:30;11.40;99.90
68385;DHT22;55336;43.062;25.626;2022-11-20T08:55:59;11.60;99.90
68385;DHT22;55336;43.062;25.626;2022-11-20T08:58:25;11.50;99.90
68385;DHT22;55336;43.062;25.626;2022-11-20T09:00:51;11.50;99.90
68385;DHT22;55336;43.062;25.626;2022-11-20T09:03:18;11.50;99.90
68385;DHT22;55336;43.062;25.626;2022-11-20T09:05:44;11.50;99.90
68385;DHT22;55336;43.062;25.626;2022-11-20T09:08:10;11.50;99.90
68385;DHT22;55336;43.062;25.626;2022-11-20T09:10:35;11.50;99.90
68385;DHT22;55336;43.062;25.626;2022-11-20T09:13:02;11.50;99.90
68385;DHT22;55336;43.062;25.626;2022-11-20T09:15:27;11.50;99.90
68385;DHT22;55336;43.062;25.626;2022-11-20T09:17:58;11.50;99.90
68385;DHT22;55336;43.062;25.626;2022-11-20T09:20:25;11.50;99.90
68385;DHT22;55336;43.062;25.626;2022-11-20T09:22:51;11.40;99.90
68385;DHT22;55336;43.062;25.626;2022-11-20T09:25:17;11.30;99.90
68385;DHT22;55336;43.062;25.626;2022-11-20T09:27:43;11.30;99.90
68385;DHT22;55336;43.062;25.626;2022-11-20T09:30:12;11.20;99.90
68385;DHT22;55336;43.062;25.626;2022-11-20T09:32:39;11.30;99.90
68385;DHT22;55336;43.062;25.626;2022-11-20T09:35:05;11.40;99.90
68385;DHT22;55336;43.062;25.626;2022-11-20T09:37:31;11.40;99.90
68385;DHT22;55336;43.062;25.626;2022-11-20T09:39:58;11.40;99.90
68385;DHT22;55336;43.062;25.626;2022-11-20T09:56:34;11.60;99.90
68385;DHT22;55336;43.062;25.626;2022-11-20T09:59:05;11.40;99.90
68385;DHT22;55336;43.062;25.626;2022-11-20T10:01:35;11.60;99.90
68385;DHT22;55336;43.062;25.626;2022-11-20T10:04:04;11.70;99.90
68385;DHT22;55336;43.062;25.626;2022-11-20T10:06:34;11.60;99.90
68385;DHT22;55336;43.062;25.626;2022-11-20T10:09:18;11.80;99.90
68385;DHT22;55336;43.062;25.626;2022-11-20T10:12:04;11.80;99.90
68385;DHT22;55336;43.062;25.626;2022-11-20T10:25:37;11.60;99.90
68385;DHT22;55336;43.062;25.626;2022-11-20T10:30:57;11.70;99.90
68385;DHT22;55336;43.062;25.626;2022-11-20T10:33:27;11.80;99.90
68385;DHT22;55336;43.062;25.626;2022-11-20T10:38:43;11.80;99.90
68385;DHT22;55336;43.062;25.626;2022-11-20T10:41:21;11.80;99.90
68385;DHT22;55336;43.062;25.626;2022-11-20T10:44:28;11.90;99.90
68385;DHT22;55336;43.062;25.626;2022-11-20T10:47:15;12.10;99.90
68385;DHT22;55336;43.062;25.626;2022-11-20T10:49:42;12.20;99.90
68385;DHT22;55336;43.062;25.626;2022-11-20T10:54:54;12.40;99.90
68385;DHT22;55336;43.062;25.626;2022-11-20T10:57:27;12.50;99.90
68385;DHT22;55336;43.062;25.626;2022-11-20T11:00:09;12.50;99.90
68385;DHT22;55336;43.062;25.626;2022-11-20T11:02:43;12.60;99.90
68385;DHT22;55336;43.062;25.626;2022-11-20T11:05:39;12.80;99.90
68385;DHT22;55336;43.062;25.626;2022-11-20T11:08:14;12.90;99.90
68385;DHT22;55336;43.062;25.626;2022-11-20T11:13:47;13.10;99.90
68385;DHT22;55336;43.062;25.626;2022-11-20T11:16:31;13.20;99.90
68385;DHT22;55336;43.062;25.626;2022-11-20T11:19:12;13.20;99.90
68385;DHT22;55336;43.062;25.626;2022-11-20T11:21:38;13.00;99.90
68385;DHT22;55336;43.062;25.626;2022-11-20T11:24:24;13.00;99.90
68385;DHT22;55336;43.062;25.626;2022-11-20T11:26:58;13.00;99.90
68385;DHT22;55336;43.062;25.626;2022-11-20T11:29:25;13.00;99.90
68385;DHT22;55336;43.062;25.626;2022-11-20T11:32:20;13.10;99.90
68385;DHT22;55336;43.062;25.626;2022-11-20T11:35:11;13.20;99.90
68385;DHT22;55336;43.062;25.626;2022-11-20T11:37:45;13.20;99.90
68385;DHT22;55336;43.062;25.626;2022-11-20T11:40:13;13.20;99.90
68385;DHT22;55336;43.062;25.626;2022-11-20T11:42:43;13.30;99.90
68385;DHT22;55336;43.062;25.626;2022-11-20T11:45:14;13.30;99.90
68385;DHT22;55336;43.062;25.626;2022-11-20T11:53:19;13.30;99.90
68385;DHT22;55336;43.062;25.626;2022-11-20T11:55:30;13.20;99.90
68385;DHT22;55336;43.062;25.626;2022-11-20T12:00:54;13.30;99.90
68385;DHT22;55336;43.062;25.626;2022-11-20T12:03:35;13.30;99.90
68385;DHT22;55336;43.062;25.626;2022-11-20T12:06:08;13.30;99.90
68385;DHT22;55336;43.062;25.626;2022-11-20T12:12:02;13.30;99.90
68385;DHT22;55336;43.062;25.626;2022-11-20T12:16:52;13.20;99.90
68385;DHT22;55336;43.062;25.626;2022-11-20T12:19:21;13.00;99.90
68385;DHT22;55336;43.062;25.626;2022-11-20T12:22:07;13.10;99.90
68385;DHT22;55336;43.062;25.626;2022-11-20T12:30:19;12.50;99.90
68385;DHT22;55336;43.062;25.626;2022-11-20T12:36:15;12.90;99.90
68385;DHT22;55336;43.062;25.626;2022-11-20T12:59:04;12.30;99.90
68385;DHT22;55336;43.062;25.626;2022-11-20T13:07:08;12.10;99.90
68385;DHT22;55336;43.062;25.626;2022-11-20T13:09:39;12.10;99.90
68385;DHT22;55336;43.062;25.626;2022-11-20T13:12:27;12.00;99.90
68385;DHT22;55336;43.062;25.626;2022-11-20T13:15:14;11.90;99.90
68385;DHT22;55336;43.062;25.626;2022-11-20T13:17:59;11.90;99.90
68385;DHT22;55336;43.062;25.626;2022-11-20T13:20:26;11.90;99.90
68385;DHT22;55336;43.062;25.626;2022-11-20T13:22:56;11.90;99.90
68385;DHT22;55336;43.062;25.626;2022-11-20T13:25:38;11.90;99.90
68385;DHT22;55336;43.062;25.626;2022-11-20T13:30:48;11.90;99.90
68385;DHT22;55336;43.062;25.626;2022-11-20T13:33:31;11.90;99.90
68385;DHT22;55336;43.062;25.626;2022-11-20T13:36:02;11.90;99.90
68385;DHT22;55336;43.062;25.626;2022-11-20T13:38:46;11.80;99.90
68385;DHT22;55336;43.062;25.626;2022-11-20T13:41:26;11.80;99.90
68385;DHT22;55336;43.062;25.626;2022-11-20T13:46:40;11.70;99.90
68385;DHT22;55336;43.062;25.626;2022-11-20T13:49:08;11.70;99.90
68385;DHT22;55336;43.062;25.626;2022-11-20T13:51:37;11.70;99.90
68385;DHT22;55336;43.062;25.626;2022-11-20T14:00:07;11.60;99.90
68385;DHT22;55336;43.062;25.626;2022-11-20T14:02:36;11.60;99.90
68385;DHT22;55336;43.062;25.626;2022-11-20T14:05:01;11.60;99.90
68385;DHT22;55336;43.062;25.626;2022-11-20T14:07:37;11.40;99.90
68385;DHT22;55336;43.062;25.626;2022-11-20T14:10:05;11.50;99.90
68385;DHT22;55336;43.062;25.626;2022-11-20T14:12:32;11.50;99.90
68385;DHT22;55336;43.062;25.626;2022-11-20T14:14:59;11.60;99.90
68385;DHT22;55336;43.062;25.626;2022-11-20T14:17:33;11.60;99.90
68385;DHT22;55336;43.062;25.626;2022-11-20T14:20:06;11.60;99.90
68385;DHT22;55336;43.062;25.626;2022-11-20T14:22:36;11.60;99.90
68385;DHT22;55336;43.062;25.626;2022-11-20T14:27:28;11.60;99.90
68385;DHT22;55336;43.062;25.626;2022-11-20T14:29:54;11.50;99.90
68385;DHT22;55336;43.062;25.626;2022-11-20T14:32:22;11.40;99.90
68385;DHT22;55336;43.062;25.626;2022-11-20T14:34:50;11.30;99.90
68385;DHT22;55336;43.062;25.626;2022-11-20T14:37:24;11.20;99.90
68385;DHT22;55336;43.062;25.626;2022-11-20T14:39:54;11.10;99.90
68385;DHT22;55336;43.062;25.626;2022-11-20T14:42:28;11.10;99.90
68385;DHT22;55336;43.062;25.626;2022-11-20T14:44:59;11.10;99.90
68385;DHT22;55336;43.062;25.626;2022-11-20T14:47:29;11.00;99.90
68385;DHT22;55336;43.062;25.626;2022-11-20T14:49:57;11.00;99.90
68385;DHT22;55336;43.062;25.626;2022-11-20T14:52:26;11.00;99.90
68385;DHT22;55336;43.062;25.626;2022-11-20T14:54:54;11.00;99.90
68385;DHT22;55336;43.062;25.626;2022-11-20T14:57:29;11.00;99.90
68385;DHT22;55336;43.062;25.626;2022-11-20T15:00:27;11.00;99.90
68385;DHT22;55336;43.062;25.626;2022-11-20T15:02:54;11.00;99.90
68385;DHT22;55336;43.062;25.626;2022-11-20T15:05:43;11.00;99.90
68385;DHT22;55336;43.062;25.626;2022-11-20T15:08:18;10.90;99.90
68385;DHT22;55336;43.062;25.626;2022-11-20T15:10:58;11.00;99.90
68385;DHT22;55336;43.062;25.626;2022-11-20T15:13:39;11.30;99.90
68385;DHT22;55336;43.062;25.626;2022-11-20T15:16:20;11.00;99.90
68385;DHT22;55336;43.062;25.626;2022-11-20T15:18:52;10.90;99.90
68385;DHT22;55336;43.062;25.626;2022-11-20T15:21:40;10.90;99.90
68385;DHT22;55336;43.062;25.626;2022-11-20T15:24:11;10.90;99.90
68385;DHT22;55336;43.062;25.626;2022-11-20T15:26:44;11.00;99.90
68385;DHT22;55336;43.062;25.626;2022-11-20T15:29:16;11.00;99.90
68385;DHT22;55336;43.062;25.626;2022-11-20T15:31:46;11.00;99.90
68385;DHT22;55336;43.062;25.626;2022-11-20T15:34:12;11.00;99.90
68385;DHT22;55336;43.062;25.626;2022-11-20T15:36:42;11.00;99.90
68385;DHT22;55336;43.062;25.626;2022-11-20T15:39:08;11.00;99.90
68385;DHT22;55336;43.062;25.626;2022-11-20T15:41:35;11.00;99.90
68385;DHT22;55336;43.062;25.626;2022-11-20T15:44:02;11.00;99.90
68385;DHT22;55336;43.062;25.626;2022-11-20T15:46:33;11.00;99.90
68385;DHT22;55336;43.062;25.626;2022-11-20T15:49:12;11.00;99.90
68385;DHT22;55336;43.062;25.626;2022-11-20T15:51:44;11.10;99.90
68385;DHT22;55336;43.062;25.626;2022-11-20T15:54:40;11.10;99.90
68385;DHT22;55336;43.062;25.626;2022-11-20T15:57:09;11.00;99.90
68385;DHT22;55336;43.062;25.626;2022-11-20T15:59:44;11.00;99.90
68385;DHT22;55336;43.062;25.626;2022-11-20T16:02:14;11.10;99.90
68385;DHT22;55336;43.062;25.626;2022-11-20T16:04:41;10.90;99.90
68385;DHT22;55336;43.062;25.626;2022-11-20T16:07:07;11.00;99.90
68385;DHT22;55336;43.062;25.626;2022-11-20T16:09:33;11.00;99.90
68385;DHT22;55336;43.062;25.626;2022-11-20T16:12:01;11.00;99.90
68385;DHT22;55336;43.062;25.626;2022-11-20T16:14:27;10.90;99.90
68385;DHT22;55336;43.062;25.626;2022-11-20T16:17:12;10.90;99.90
68385;DHT22;55336;43.062;25.626;2022-11-20T16:19:43;10.80;99.90
68385;DHT22;55336;43.062;25.626;2022-11-20T16:22:15;11.00;99.90
68385;DHT22;55336;43.062;25.626;2022-11-20T16:24:41;10.80;99.90
68385;DHT22;55336;43.062;25.626;2022-11-20T16:27:10;10.90;99.90
68385;DHT22;55336;43.062;25.626;2022-11-20T16:29:39;11.00;99.90
68385;DHT22;55336;43.062;25.626;2022-11-20T16:32:06;11.10;99.90
68385;DHT22;55336;43.062;25.626;2022-11-20T16:34:32;11.10;99.90
68385;DHT22;55336;43.062;25.626;2022-11-20T16:36:58;11.10;99.90
68385;DHT22;55336;43.062;25.626;2022-11-20T16:39:25;11.10;99.90
68385;DHT22;55336;43.062;25.626;2022-11-20T16:41:51;11.10;99.90
68385;DHT22;55336;43.062;25.626;2022-11-20T16:44:18;11.20;99.90
68385;DHT22;55336;43.062;25.626;2022-11-20T16:46:44;11.20;99.90
68385;DHT22;55336;43.062;25.626;2022-11-20T16:49:11;11.20;99.90
68385;DHT22;55336;43.062;25.626;2022-11-20T16:51:43;11.20;99.90
68385;DHT22;55336;43.062;25.626;2022-11-20T16:54:09;11.20;99.90
68385;DHT22;55336;43.062;25.626;2022-11-20T16:56:36;11.20;99.90
68385;DHT22;55336;43.062;25.626;2022-11-20T16:59:02;11.20;99.90
68385;DHT22;55336;43.062;25.626;2022-11-20T17:01:29;11.20;99.90
68385;DHT22;55336;43.062;25.626;2022-11-20T17:03:57;11.20;99.90
68385;DHT22;55336;43.062;25.626;2022-11-20T17:06:29;11.10;99.90
68385;DHT22;55336;43.062;25.626;2022-11-20T17:08:56;11.20;99.90